Time;durP1;ratioP1;P1;durP2;ratioP2;P2;SDS_P1;SDS_P2;PMS_P1;PMS_P2;Temp;Humidity;BMP_temperature;BMP_pressure;BME280_temperature;BME280_humidity;BME280_pressure;Samples;Min_cycle;Max_cycle;Signal;HPM_P1;HPM_P2
2023/04/17 00:02:28;;;;;;;9.50;8.37;;;;;;;10.55;80.08;99353.78;5080185;28;38738;-86
2023/04/17 00:04:56;;;;;;;10.57;9.00;;;;;;;10.67;79.77;99376.97;5092438;28;42281;-81
2023/04/17 00:07:27;;;;;;;9.30;7.60;;;;;;;10.49;79.87;99354.13;5074516;28;41495;-82
2023/04/17 00:09:54;;;;;;;8.83;7.87;;;;;;;10.62;79.90;99369.28;5091929;28;43382;-84
2023/04/17 00:12:22;;;;;;;9.90;8.90;;;;;;;10.49;79.87;99356.78;5074480;28;38991;-82
2023/04/17 00:14:50;;;;;;;9.20;7.27;;;;;;;10.58;79.88;99377.47;5074052;28;41026;-83
2023/04/17 00:17:17;;;;;;;9.10;7.43;;;;;;;10.48;80.11;99361.22;5091576;28;43774;-85
2023/04/17 00:19:46;;;;;;;10.80;9.47;;;;;;;10.56;79.66;99374.91;5074994;28;40888;-83
2023/04/17 00:22:14;;;;;;;8.40;7.30;;;;;;;10.56;79.82;99374.03;5074509;28;39979;-81
2023/04/17 00:24:41;;;;;;;8.90;7.20;;;;;;;10.55;79.82;99370.53;5092960;28;41934;-88
2023/04/17 00:27:09;;;;;;;7.77;6.97;;;;;;;10.50;79.62;99356.72;5091579;28;43756;-80
2023/04/17 00:29:37;;;;;;;7.10;6.40;;;;;;;10.56;79.57;99366.09;5074798;28;42298;-84
2023/04/17 00:32:05;;;;;;;9.13;7.80;;;;;;;10.53;79.81;99363.59;5074765;28;39657;-84
2023/04/17 00:34:33;;;;;;;9.50;7.47;;;;;;;10.54;79.69;99366.19;5092156;28;41855;-85
2023/04/17 00:37:01;;;;;;;10.27;9.17;;;;;;;10.50;79.82;99353.22;5091298;28;43809;-80
2023/04/17 00:39:29;;;;;;;10.03;8.83;;;;;;;10.53;80.07;99363.59;5091426;28;43352;-82
2023/04/17 00:41:57;;;;;;;10.83;9.40;;;;;;;10.42;80.28;99346.50;5091562;28;40757;-82
2023/04/17 00:44:25;;;;;;;11.87;9.30;;;;;;;10.55;80.18;99361.75;5091723;28;43701;-84
2023/04/17 00:46:53;;;;;;;11.43;8.80;;;;;;;10.54;80.35;99360.88;5091651;28;42001;-84
2023/04/17 00:49:20;;;;;;;9.07;7.40;;;;;;;10.55;80.20;99359.09;5091271;28;42126;-81
2023/04/17 00:51:48;;;;;;;7.67;6.87;;;;;;;10.47;80.05;99338.34;5092600;28;40100;-84
2023/04/17 00:54:19;;;;;;;8.43;6.67;;;;;;;10.54;80.22;99350.28;5074250;28;40770;-84
2023/04/17 00:56:47;;;;;;;7.30;6.50;;;;;;;10.44;79.90;99334.06;5074158;28;42792;-87
2023/04/17 00:59:18;;;;;;;6.50;5.87;;;;;;;10.58;79.85;99356.28;5074397;28;42203;-83
2023/04/17 01:01:45;;;;;;;7.10;6.40;;;;;;;10.46;79.93;99336.63;5074434;28;40043;-80
2023/04/17 01:04:13;;;;;;;8.20;6.87;;;;;;;10.46;80.12;99339.28;5075908;28;41977;-84
2023/04/17 01:06:40;;;;;;;9.00;6.87;;;;;;;10.54;79.95;99360.03;5094714;28;43661;-81
2023/04/17 01:09:08;;;;;;;7.13;6.10;;;;;;;10.53;80.12;99358.31;5094544;28;42455;-84
2023/04/17 01:11:38;;;;;;;6.70;5.90;;;;;;;10.52;79.98;99354.81;5077835;28;39292;-86
2023/04/17 01:14:06;;;;;;;5.97;5.37;;;;;;;10.51;79.85;99357.56;5094567;28;42662;-82
2023/04/17 01:16:34;;;;;;;6.97;6.27;;;;;;;10.49;80.05;99352.34;5077548;28;43055;-84
2023/04/17 01:19:01;;;;;;;7.70;6.53;;;;;;;10.49;79.98;99351.50;5094500;28;41297;-83
2023/04/17 01:21:30;;;;;;;6.63;6.00;;;;;;;10.43;80.56;99342.94;5082421;28;38809;-81
2023/04/17 01:24:02;;;;;;;7.07;6.37;;;;;;;10.46;80.48;99347.22;5081391;28;40451;-82
2023/04/17 01:26:32;;;;;;;6.83;5.93;;;;;;;10.46;80.58;99351.66;5081637;28;41854;-82
2023/04/17 01:29:00;;;;;;;6.97;6.27;;;;;;;10.38;80.45;99338.84;5081119;28;42015;-82
2023/04/17 01:31:30;;;;;;;6.50;5.90;;;;;;;10.36;80.59;99332.75;5096633;28;40776;-87
2023/04/17 01:33:59;;;;;;;6.60;5.73;;;;;;;10.35;80.41;99339.84;5077004;28;41635;-83
2023/04/17 01:36:28;;;;;;;8.27;6.43;;;;;;;10.34;80.42;99332.84;5076744;28;41324;-85
2023/04/17 01:38:55;;;;;;;6.97;6.27;;;;;;;10.46;80.56;99355.16;5095190;28;42263;-84
2023/04/17 01:41:25;;;;;;;7.27;6.30;;;;;;;10.35;80.92;99339.84;5094348;28;40750;-85
2023/04/17 01:43:52;;;;;;;6.60;5.53;;;;;;;10.36;80.86;99338.91;5093760;28;41656;-85
2023/04/17 01:46:20;;;;;;;6.90;6.20;;;;;;;10.15;81.03;99308.25;5094067;28;42741;-85
2023/04/17 01:48:49;;;;;;;6.43;5.80;;;;;;;10.41;81.26;99350.09;5093961;28;43172;-84
2023/04/17 01:51:17;;;;;;;9.10;6.17;;;;;;;10.40;81.52;99352.81;5076853;28;39266;-84
2023/04/17 01:53:45;;;;;;;6.47;5.53;;;;;;;10.29;81.64;99334.00;5094935;28;41911;-85
2023/04/17 01:56:13;;;;;;;7.97;7.17;;;;;;;10.38;81.77;99345.00;5076924;28;43692;-85
2023/04/17 01:58:41;;;;;;;6.13;5.53;;;;;;;10.29;81.77;99329.56;5093760;28;42280;-83
2023/04/17 02:01:09;;;;;;;6.40;5.60;;;;;;;10.32;81.44;99342.66;5076816;28;39174;-83
2023/04/17 02:03:37;;;;;;;5.87;5.30;;;;;;;10.30;81.79;99333.94;5094850;28;42517;-84
2023/04/17 02:06:05;;;;;;;5.73;5.17;;;;;;;10.41;81.87;99351.88;5093627;28;42535;-82
2023/04/17 02:08:33;;;;;;;5.63;5.10;;;;;;;10.41;81.48;99344.81;5094703;28;42297;-84
2023/04/17 02:11:00;;;;;;;5.40;4.90;;;;;;;10.27;81.92;99323.50;5093655;28;39383;-80
2023/04/17 02:13:28;;;;;;;5.63;5.00;;;;;;;10.41;81.72;99354.53;5076142;28;40868;-82
2023/04/17 02:15:57;;;;;;;5.23;4.73;;;;;;;10.41;81.71;99347.44;5093305;28;42713;-82
2023/04/17 02:18:29;;;;;;;5.93;4.93;;;;;;;10.18;81.71;99301.94;5098128;28;42229;-81
2023/04/17 02:20:56;;;;;;;6.97;6.10;;;;;;;10.41;81.53;99346.59;5082413;28;39978;-82
2023/04/17 02:23:24;;;;;;;6.10;5.53;;;;;;;10.39;82.24;99346.66;5077113;28;40645;-87
2023/04/17 02:25:51;;;;;;;6.30;5.60;;;;;;;10.04;82.13;99284.16;5076023;28;41737;-81
2023/04/17 02:28:19;;;;;;;6.10;5.50;;;;;;;10.39;82.56;99340.53;5093201;28;42666;-84
2023/04/17 02:30:47;;;;;;;5.47;4.97;;;;;;;10.27;82.11;99327.94;5059804;28;40253;-86
2023/04/17 02:33:16;;;;;;;5.30;4.80;;;;;;;10.40;82.16;99348.38;5076388;28;40693;-85
2023/04/17 02:35:44;;;;;;;5.47;4.83;;;;;;;10.40;82.65;99348.38;5075945;28;41582;-82
2023/04/17 02:38:12;;;;;;;6.20;5.60;;;;;;;10.28;82.21;99325.22;5092992;28;42229;-82
2023/04/17 02:40:41;;;;;;;4.20;3.80;;;;;;;10.42;82.17;99341.22;5075939;28;38848;-82
2023/04/17 02:43:08;;;;;;;5.30;4.70;;;;;;;10.33;82.38;99331.13;5075567;28;42093;-80
2023/04/17 02:45:36;;;;;;;5.37;4.87;;;;;;;10.41;82.42;99344.81;5075751;28;42072;-86
2023/04/17 02:48:04;;;;;;;6.47;5.83;;;;;;;10.44;83.11;99344.66;5075775;28;41105;-80
2023/04/17 02:50:33;;;;;;;6.27;5.63;;;;;;;10.43;82.69;99342.06;5092881;28;39049;-81
2023/04/17 02:53:11;;;;;;;5.37;4.87;;;;;;;10.46;82.57;99351.66;5075782;28;42477;-83
2023/04/17 02:55:39;;;;;;;5.27;4.77;;;;;;;10.25;82.68;99309.53;5075686;28;41472;-81
2023/04/17 02:58:06;;;;;;;4.70;4.20;;;;;;;10.48;82.75;99352.44;5092957;28;42196;-82
2023/04/17 03:00:34;;;;;;;5.03;4.30;;;;;;;10.49;82.82;99351.50;5091231;28;40970;-86
2023/04/17 03:03:02;;;;;;;4.50;4.10;;;;;;;10.51;82.51;99344.31;5075372;28;43840;-83
2023/04/17 03:05:30;;;;;;;5.50;4.93;;;;;;;10.44;82.74;99333.19;5075434;28;41799;-84
2023/04/17 03:08:01;;;;;;;5.57;4.40;;;;;;;10.51;82.64;99350.44;5075227;28;41166;-85
2023/04/17 03:10:34;;;;;;;5.40;4.90;;;;;;;10.47;82.47;99333.03;5075663;28;40009;-83
2023/04/17 03:13:03;;;;;;;5.70;5.03;;;;;;;10.53;82.30;99345.06;5092049;28;41707;-84
2023/04/17 03:15:33;;;;;;;5.23;4.70;;;;;;;10.54;82.76;99347.63;5090679;28;42914;-83
2023/04/17 03:18:01;;;;;;;5.77;5.23;;;;;;;10.47;83.86;99338.34;5092264;28;41099;-86
2023/04/17 03:20:29;;;;;;;6.47;5.30;;;;;;;10.50;83.87;99347.91;5075653;28;39056;-83
2023/04/17 03:22:56;;;;;;;6.33;5.50;;;;;;;10.46;83.54;99341.91;5093093;28;41815;-87
2023/04/17 03:25:25;;;;;;;6.23;5.63;;;;;;;10.46;83.48;99335.75;5092269;28;42873;-80
2023/04/17 03:27:55;;;;;;;5.97;5.37;;;;;;;10.53;83.93;99342.41;5092066;28;41951;-83
2023/04/17 03:30:26;;;;;;;6.23;5.63;;;;;;;10.49;84.30;99341.75;5075109;28;39218;-83
2023/04/17 03:32:57;;;;;;;6.23;5.57;;;;;;;10.43;84.44;99336.78;5075233;28;40585;-82
2023/04/17 03:35:24;;;;;;;7.23;5.80;;;;;;;10.49;84.53;99344.41;5074907;28;41739;-85
2023/04/17 03:37:52;;;;;;;5.93;5.33;;;;;;;10.52;84.09;99348.66;5091681;28;42513;-81
2023/04/17 03:40:20;;;;;;;6.50;5.80;;;;;;;10.51;84.11;99355.75;5075370;28;39844;-82
2023/04/17 03:42:49;;;;;;;5.80;5.30;;;;;;;10.51;84.92;99347.81;5074504;28;41563;-82
2023/04/17 03:45:17;;;;;;;5.33;4.80;;;;;;;10.53;84.04;99358.31;5091678;28;42693;-81
2023/04/17 03:47:46;;;;;;;5.37;4.60;;;;;;;10.55;83.96;99353.78;5074509;28;41631;-83
2023/04/17 03:50:15;;;;;;;4.57;4.13;;;;;;;10.57;83.93;99359.88;5074905;28;38626;-84
2023/04/17 03:52:51;;;;;;;7.07;5.87;;;;;;;10.56;83.98;99353.72;5074536;28;40631;-88
2023/04/17 03:55:19;;;;;;;7.57;5.70;;;;;;;10.58;84.02;99361.56;5074984;28;42723;-85
2023/04/17 03:57:50;;;;;;;5.97;5.37;;;;;;;10.48;83.75;99341.84;5074352;28;41328;-84
2023/04/17 04:00:20;;;;;;;5.33;4.73;;;;;;;10.59;83.97;99358.84;5074950;28;39968;-86
2023/04/17 04:02:52;;;;;;;5.77;5.17;;;;;;;10.51;83.67;99354.91;5089540;28;42886;-84
2023/04/17 04:05:25;;;;;;;5.50;5.00;;;;;;;10.46;83.63;99343.72;5088735;28;42792;-80
2023/04/17 04:07:53;;;;;;;5.70;5.10;;;;;;;10.46;83.37;99349.00;5091196;28;41775;-83
2023/04/17 04:10:27;;;;;;;5.73;4.60;;;;;;;10.53;83.53;99358.31;5075061;28;38903;-86
2023/04/17 04:12:57;;;;;;;4.83;4.43;;;;;;;10.61;83.24;99372.88;5074468;28;40582;-83
2023/04/17 04:15:26;;;;;;;6.93;4.50;;;;;;;10.47;83.29;99348.06;5091064;28;43662;-86
2023/04/17 04:17:57;;;;;;;4.77;4.30;;;;;;;10.61;83.44;99372.00;5089545;28;42350;-83
2023/04/17 04:20:25;;;;;;;4.80;4.23;;;;;;;10.50;83.08;99359.34;5091657;28;40805;-82
2023/04/17 04:23:02;;;;;;;4.40;3.97;;;;;;;10.62;83.03;99373.72;5089406;28;42263;-84
2023/04/17 04:25:31;;;;;;;4.57;4.03;;;;;;;10.62;83.09;99379.03;5074548;28;41475;-83
2023/04/17 04:28:16;;;;;;;4.37;3.97;;;;;;;10.62;82.95;99379.88;5074658;28;42187;-80
2023/04/17 04:30:49;;;;;;;4.97;4.30;;;;;;;10.61;83.00;99382.59;5080336;28;38942;-83
2023/04/17 04:33:19;;;;;;;5.97;4.30;;;;;;;10.60;83.28;99386.19;5077425;28;40711;-86
2023/04/17 04:35:47;;;;;;;5.17;4.53;;;;;;;10.52;83.26;99378.63;5074508;28;41812;-81
2023/04/17 04:38:16;;;;;;;5.90;5.30;;;;;;;10.57;83.17;99381.06;5091784;28;42043;-85
2023/04/17 04:40:51;;;;;;;5.20;4.63;;;;;;;10.56;83.23;99379.34;5078259;28;39908;-85
2023/04/17 04:43:21;;;;;;;6.57;5.27;;;;;;;10.55;83.65;99383.78;5078154;28;40766;-84
2023/04/17 04:45:48;;;;;;;6.83;5.87;;;;;;;10.56;83.68;99387.28;5095885;28;42785;-84
2023/04/17 04:48:17;;;;;;;6.07;5.47;;;;;;;10.56;83.63;99379.34;5077752;28;41066;-86
2023/04/17 04:50:45;;;;;;;6.87;6.23;;;;;;;10.57;83.91;99378.41;5078236;28;39862;-82
2023/04/17 04:53:13;;;;;;;5.90;5.40;;;;;;;10.57;83.89;99387.22;5094307;28;41551;-85
2023/04/17 04:55:50;;;;;;;6.57;5.13;;;;;;;10.58;83.47;99388.06;5078172;28;42232;-82
2023/04/17 04:58:18;;;;;;;6.13;5.53;;;;;;;10.44;83.56;99371.13;5094322;28;43347;-82
2023/04/17 05:00:49;;;;;;;5.83;5.23;;;;;;;10.57;83.34;99396.94;5077936;28;38803;-82
2023/04/17 05:03:26;;;;;;;6.30;5.70;;;;;;;10.60;83.36;99399.44;5078130;28;40938;-81
2023/04/17 05:05:54;;;;;;;6.77;5.47;;;;;;;10.63;83.47;99407.22;5077771;28;41613;-81
2023/04/17 05:08:26;;;;;;;7.20;6.20;;;;;;;10.66;83.34;99412.34;5077824;28;41554;-83
2023/04/17 05:11:05;;;;;;;6.50;5.90;;;;;;;10.68;83.40;99411.31;5077956;28;40131;-81
2023/04/17 05:13:33;;;;;;;5.93;5.33;;;;;;;10.61;83.01;99386.13;5093973;28;41389;-83
2023/04/17 05:16:03;;;;;;;5.60;5.10;;;;;;;10.56;82.94;99379.34;5077705;28;42984;-80
2023/04/17 05:18:31;;;;;;;5.10;4.47;;;;;;;10.84;82.57;99410.50;5094338;28;42374;-85
2023/04/17 05:20:59;;;;;;;5.67;5.07;;;;;;;10.90;82.75;99415.44;5077777;28;38854;-86
2023/04/17 05:23:28;;;;;;;4.93;4.47;;;;;;;10.96;82.17;99412.47;5078888;28;40748;-85
2023/04/17 05:25:57;;;;;;;5.47;4.60;;;;;;;10.90;82.02;99389.78;5079598;28;41627;-82
2023/04/17 05:28:26;;;;;;;6.50;5.37;;;;;;;10.99;81.76;99420.25;5097705;28;42512;-84
2023/04/17 05:30:58;;;;;;;9.23;7.33;;;;;;;10.97;81.13;99412.38;5082050;28;39095;-81
2023/04/17 05:33:33;;;;;;;7.13;6.43;;;;;;;10.84;80.57;99399.91;5096061;28;42218;-83
2023/04/17 05:36:03;;;;;;;7.73;6.90;;;;;;;10.93;80.89;99410.84;5077260;28;42119;-82
2023/04/17 05:38:35;;;;;;;8.73;7.83;;;;;;;10.96;80.79;99426.56;5076606;28;42573;-86
2023/04/17 05:41:07;;;;;;;8.00;7.13;;;;;;;10.92;80.82;99401.16;5076914;28;39847;-83
2023/04/17 05:43:35;;;;;;;8.37;6.93;;;;;;;11.08;80.54;99417.94;5093710;28;41659;-83
2023/04/17 05:46:04;;;;;;;6.67;6.07;;;;;;;11.03;80.59;99405.88;5093510;28;43011;-79
2023/04/17 05:48:32;;;;;;;8.33;7.30;;;;;;;11.16;79.83;99423.66;5076633;28;41583;-85
2023/04/17 05:51:01;;;;;;;8.40;7.13;;;;;;;11.05;79.89;99410.16;5076618;28;38990;-85
2023/04/17 05:53:29;;;;;;;8.27;7.47;;;;;;;10.98;79.50;99402.66;5071530;28;40791;-83
2023/04/17 05:55:58;;;;;;;8.20;6.93;;;;;;;11.14;79.94;99429.97;5076038;28;41658;-82
2023/04/17 05:58:26;;;;;;;8.83;6.93;;;;;;;11.06;79.65;99417.16;5072080;28;41534;-80
2023/04/17 06:00:57;;;;;;;9.00;6.90;;;;;;;11.13;80.00;99434.44;5092511;28;39723;-79
2023/04/17 06:03:27;;;;;;;9.37;8.20;;;;;;;11.13;80.00;99429.13;5071766;28;41611;-82
2023/04/17 06:06:14;;;;;;;9.90;7.70;;;;;;;11.18;79.65;99434.19;5087691;28;43323;-82
2023/04/17 06:08:41;;;;;;;8.63;7.57;;;;;;;11.12;79.69;99416.00;5090358;28;42133;-82
2023/04/17 06:11:09;;;;;;;9.00;8.10;;;;;;;11.16;79.58;99414.84;5091718;28;39796;-84
2023/04/17 06:13:37;;;;;;;8.43;7.53;;;;;;;11.29;79.45;99438.88;5070814;28;40557;-82
2023/04/17 06:16:06;;;;;;;8.40;7.60;;;;;;;11.42;79.38;99439.91;5054280;28;41717;-88
2023/04/17 06:18:33;;;;;;;8.97;7.73;;;;;;;11.49;78.83;99443.94;5065138;28;41191;-87
2023/04/17 06:21:01;;;;;;;8.00;7.20;;;;;;;11.62;78.42;99436.13;5076884;28;38978;-86
2023/04/17 06:23:31;;;;;;;8.70;6.90;;;;;;;11.57;78.26;99423.13;5071858;28;40442;-84
2023/04/17 06:25:58;;;;;;;10.83;7.90;;;;;;;11.64;77.27;99429.78;5089477;28;42981;-82
2023/04/17 06:28:26;;;;;;;9.13;8.00;;;;;;;11.87;77.00;99439.09;5081359;28;42830;-85
2023/04/17 06:30:55;;;;;;;8.40;7.50;;;;;;;12.06;76.64;99450.34;5093012;28;41914;-83
2023/04/17 06:33:23;;;;;;;9.23;8.27;;;;;;;12.11;76.26;99447.44;5071506;28;41799;-80
2023/04/17 06:35:51;;;;;;;8.87;7.90;;;;;;;12.27;76.08;99445.56;5072231;28;43044;-80
2023/04/17 06:38:47;;;;;;;8.43;7.50;;;;;;;12.49;74.58;99451.25;5084378;28;42133;-85
2023/04/17 06:41:15;;;;;;;8.53;7.63;;;;;;;12.65;74.66;99450.34;5076222;28;38572;-85
2023/04/17 06:43:43;;;;;;;9.13;7.27;;;;;;;12.64;73.07;99448.63;5108838;28;42060;-81
2023/04/17 06:46:14;;;;;;;9.63;7.90;;;;;;;12.87;73.43;99445.41;5075552;28;41624;-83
2023/04/17 06:48:41;;;;;;;7.43;6.73;;;;;;;13.02;73.45;99457.72;5074633;28;41339;-81
2023/04/17 06:51:09;;;;;;;8.00;6.93;;;;;;;13.15;72.04;99461.38;5092994;28;40036;-82
2023/04/17 06:53:37;;;;;;;10.00;7.53;;;;;;;13.24;71.43;99467.91;5074869;28;40577;-77
2023/04/17 06:56:06;;;;;;;8.23;7.43;;;;;;;13.38;69.98;99470.53;5087875;28;43778;-76
2023/04/17 06:58:41;;;;;;;8.27;6.63;;;;;;;13.23;68.75;99464.38;5125140;27;43306;-78
2023/04/17 07:01:08;;;;;;;8.03;7.27;;;;;;;13.29;68.32;99468.47;5090183;28;40082;-77
2023/04/17 07:03:35;;;;;;;6.77;6.17;;;;;;;13.50;68.74;99471.56;5074279;28;42009;-78
2023/04/17 07:06:03;;;;;;;8.40;6.90;;;;;;;13.83;69.26;99479.16;5085978;28;43062;-77
2023/04/17 07:08:31;;;;;;;7.87;7.07;;;;;;;13.93;65.95;99491.75;5074064;28;42785;-78
2023/04/17 07:10:59;;;;;;;8.00;6.63;;;;;;;14.18;66.88;99501.63;5092129;28;39912;-79
2023/04/17 07:13:31;;;;;;;6.97;6.27;;;;;;;14.26;65.97;99477.13;5107845;28;40666;-77
2023/04/17 07:16:00;;;;;;;8.93;7.47;;;;;;;14.59;65.41;99493.50;5069628;28;42109;-80
2023/04/17 07:18:28;;;;;;;8.27;7.07;;;;;;;14.62;63.88;99503.97;5054183;28;41937;-77
2023/04/17 07:20:58;;;;;;;7.77;6.97;;;;;;;14.70;63.00;99506.97;5088022;28;40951;-77
2023/04/17 07:23:26;;;;;;;7.93;6.53;;;;;;;14.93;63.22;99501.84;5092145;28;41193;-78
2023/04/17 07:25:54;;;;;;;6.77;6.00;;;;;;;15.13;62.59;99506.63;5123757;27;42818;-76
2023/04/17 07:28:22;;;;;;;7.37;6.67;;;;;;;15.28;61.32;99515.38;5090630;28;41421;-78
2023/04/17 07:30:53;;;;;;;6.83;6.13;;;;;;;15.26;61.51;99518.16;5073404;28;39595;-78
2023/04/17 07:33:21;;;;;;;6.77;5.93;;;;;;;15.35;60.69;99527.31;5090623;28;41800;-78
2023/04/17 07:35:50;;;;;;;6.80;6.20;;;;;;;15.33;60.87;99503.38;5091390;28;41802;-77
2023/04/17 07:38:18;;;;;;;6.50;5.43;;;;;;;15.48;60.14;99521.94;5053365;28;41521;-77
2023/04/17 07:40:46;;;;;;;7.13;6.43;;;;;;;15.56;60.62;99519.63;5069999;28;38980;-77
2023/04/17 07:43:14;;;;;;;6.50;5.90;;;;;;;15.55;59.53;99531.25;5072224;28;40268;-76
2023/04/17 07:45:41;;;;;;;6.63;5.97;;;;;;;15.56;59.82;99531.16;5091207;28;43824;-76
2023/04/17 07:48:10;;;;;;;8.23;6.33;;;;;;;15.58;59.67;99525.72;5107014;28;42273;-75
2023/04/17 07:50:38;;;;;;;7.00;6.23;;;;;;;15.50;58.60;99530.69;5069780;28;39164;-77
2023/04/17 07:53:07;;;;;;;8.50;7.00;;;;;;;15.40;58.04;99531.34;5103783;28;41743;-80
2023/04/17 07:55:34;;;;;;;6.50;5.90;;;;;;;15.40;59.01;99530.50;5090205;28;43704;-78
2023/04/17 07:58:02;;;;;;;7.00;6.30;;;;;;;15.40;60.00;99520.69;5091329;28;43295;-78
2023/04/17 08:00:30;;;;;;;7.50;6.73;;;;;;;15.40;58.71;99535.84;5090049;28;40932;-77
2023/04/17 08:02:58;;;;;;;6.97;6.20;;;;;;;15.41;60.04;99532.22;5073404;28;40762;-78
2023/04/17 08:05:27;;;;;;;7.97;6.17;;;;;;;15.46;59.63;99528.22;5073121;28;42607;-78
2023/04/17 08:07:54;;;;;;;7.33;5.67;;;;;;;15.49;58.81;99534.31;5089685;28;42243;-78
2023/04/17 08:10:22;;;;;;;6.40;5.57;;;;;;;15.41;58.58;99538.41;5091320;28;41138;-78
2023/04/17 08:12:50;;;;;;;6.20;5.60;;;;;;;15.54;58.99;99522.38;5091255;28;42641;-78
2023/04/17 08:15:17;;;;;;;6.40;5.80;;;;;;;15.61;58.32;99523.66;5074945;28;42156;-77
2023/04/17 08:17:45;;;;;;;6.77;6.07;;;;;;;15.55;57.52;99548.13;5076862;28;41290;-76
2023/04/17 08:20:13;;;;;;;7.60;6.23;;;;;;;15.70;57.74;99551.53;5109960;28;38561;-77
2023/04/17 08:22:44;;;;;;;6.90;5.73;;;;;;;15.83;58.37;99546.97;5076466;28;40434;-77
2023/04/17 08:25:13;;;;;;;6.23;5.60;;;;;;;15.82;57.17;99558.66;5124226;27;42575;-77
2023/04/17 08:27:41;;;;;;;6.50;5.87;;;;;;;15.87;56.31;99561.81;5093431;28;41478;-77
2023/04/17 08:30:11;;;;;;;6.00;5.40;;;;;;;15.88;57.44;99552.84;5072722;28;38856;-77
2023/04/17 08:32:39;;;;;;;6.23;5.20;;;;;;;15.80;56.73;99560.56;5055920;28;41227;-76
2023/04/17 08:35:08;;;;;;;5.93;5.43;;;;;;;15.81;57.40;99556.94;5076202;28;42725;-77
2023/04/17 08:37:36;;;;;;;5.77;5.20;;;;;;;15.90;57.85;99556.25;5076492;28;41174;-76
2023/04/17 08:40:08;;;;;;;5.83;5.30;;;;;;;15.78;56.25;99573.19;5072297;28;39241;-78
2023/04/17 08:42:36;;;;;;;6.13;5.43;;;;;;;15.94;56.82;99565.75;5071973;28;41930;-77
2023/04/17 08:45:06;;;;;;;5.60;5.10;;;;;;;15.95;57.16;99554.06;5065491;28;43369;-78
2023/04/17 08:47:34;;;;;;;6.00;5.50;;;;;;;15.85;55.93;99554.88;5093377;28;41129;-78
2023/04/17 08:50:07;;;;;;;6.43;5.10;;;;;;;15.90;56.46;99572.28;5092883;28;39711;-79
2023/04/17 08:52:38;;;;;;;6.27;5.33;;;;;;;15.98;57.48;99567.22;5076558;28;41122;-80
2023/04/17 08:55:08;;;;;;;6.03;5.43;;;;;;;16.01;56.76;99569.69;5109932;28;41444;-77
2023/04/17 08:57:52;;;;;;;6.17;5.50;;;;;;;16.00;55.76;99578.66;5093018;28;42268;-77
2023/04/17 09:00:24;;;;;;;5.10;4.60;;;;;;;15.98;56.44;99559.22;5073024;28;40775;-77
2023/04/17 09:02:53;;;;;;;9.60;5.10;;;;;;;16.12;56.58;99576.91;5056000;28;40735;-78
2023/04/17 09:05:21;;;;;;;6.30;5.07;;;;;;;16.00;55.43;99559.09;5084402;28;42883;-81
2023/04/17 09:07:49;;;;;;;6.03;5.43;;;;;;;16.17;55.48;99580.09;5076061;28;41350;-77
2023/04/17 09:10:18;;;;;;;5.87;5.27;;;;;;;16.22;54.42;99587.75;5093976;28;39935;-81
2023/04/17 09:12:59;;;;;;;5.20;4.70;;;;;;;16.29;55.10;99575.66;5093062;28;42680;-78
2023/04/17 09:15:27;;;;;;;5.70;5.10;;;;;;;16.51;55.74;99579.28;5091975;28;41834;-77
2023/04/17 09:17:55;;;;;;;5.50;5.00;;;;;;;16.74;55.53;99580.22;5092567;28;42115;-78
2023/04/17 09:20:22;;;;;;;5.40;4.90;;;;;;;16.87;55.17;99572.97;5092908;28;39808;-78
2023/04/17 09:22:59;;;;;;;5.93;4.33;;;;;;;17.17;53.49;99590.31;5092662;28;41079;-78
2023/04/17 09:25:28;;;;;;;5.67;5.17;;;;;;;17.23;52.56;99585.31;5074864;28;42044;-78
2023/04/17 09:28:08;;;;;;;5.10;4.70;;;;;;;17.33;52.85;99593.47;5093497;28;42302;-77
2023/04/17 09:30:36;;;;;;;5.30;4.83;;;;;;;17.26;51.99;99596.78;5092835;28;39935;-79
2023/04/17 09:33:05;;;;;;;5.63;5.07;;;;;;;17.27;52.16;99601.16;5075908;28;40831;-79
2023/04/17 09:35:33;;;;;;;5.03;4.53;;;;;;;17.36;52.31;99598.59;5096086;28;42039;-82
2023/04/17 09:38:01;;;;;;;5.33;4.93;;;;;;;17.49;52.28;99588.63;5088928;28;43240;-79
2023/04/17 09:40:38;;;;;;;4.90;4.40;;;;;;;17.87;52.19;99592.78;5064854;28;38504;-77
2023/04/17 09:43:07;;;;;;;5.07;4.67;;;;;;;18.07;51.75;99599.19;5055697;28;41671;-78
2023/04/17 09:45:38;;;;;;;5.10;4.30;;;;;;;18.11;50.87;99600.66;5086697;28;42914;-77
2023/04/17 09:48:08;;;;;;;4.80;4.40;;;;;;;18.05;50.30;99602.00;5074860;28;42450;-77
2023/04/17 09:50:36;;;;;;;4.83;4.37;;;;;;;17.88;51.29;99599.84;5125954;27;40989;-79
2023/04/17 09:53:04;;;;;;;4.53;4.07;;;;;;;17.57;51.20;99604.94;5075510;28;40784;-77
2023/04/17 09:55:35;;;;;;;3.97;3.67;;;;;;;17.12;51.40;99601.38;5071340;28;42147;-81
2023/04/17 09:58:04;;;;;;;4.07;3.67;;;;;;;16.81;52.53;99597.50;5071259;28;42219;-78
2023/04/17 10:00:31;;;;;;;4.50;4.10;;;;;;;16.52;52.52;99597.03;5085161;28;40776;-79
2023/04/17 10:02:59;;;;;;;4.53;4.00;;;;;;;16.39;53.62;99590.03;5092092;28;40550;-82
2023/04/17 10:05:29;;;;;;;4.37;3.97;;;;;;;16.31;53.56;99595.13;5091732;28;41252;-77
2023/04/17 10:07:56;;;;;;;4.93;4.27;;;;;;;16.21;54.27;99581.56;5074952;28;42553;-76
2023/04/17 10:10:26;;;;;;;4.47;4.07;;;;;;;15.72;54.74;99530.88;5092696;28;40741;-77
2023/04/17 10:12:58;;;;;;;4.57;4.17;;;;;;;15.89;54.77;99583.06;5091850;28;40695;-78
2023/04/17 10:15:27;;;;;;;4.80;4.40;;;;;;;15.65;55.19;99583.03;5073922;28;41575;-77
2023/04/17 10:17:56;;;;;;;4.80;4.33;;;;;;;15.53;55.96;99578.53;5074498;28;41226;-78
2023/04/17 10:20:36;;;;;;;4.27;3.87;;;;;;;15.31;55.43;99580.06;5091350;28;38861;-77
2023/04/17 10:23:27;;;;;;;4.43;4.03;;;;;;;15.12;56.04;99574.28;5108751;28;40956;-78
2023/04/17 10:26:42;;;;;;;4.13;3.73;;;;;;;15.01;56.50;99568.84;5089342;28;42913;-78
2023/04/17 10:29:12;;;;;;;4.13;3.73;;;;;;;14.80;56.87;99565.84;5090810;28;41925;-79
2023/04/17 10:32:24;;;;;;;5.30;3.97;;;;;;;14.76;57.30;99566.16;5092953;28;40038;-76
2023/04/17 10:34:53;;;;;;;4.10;3.70;;;;;;;14.51;57.08;99573.16;5074499;28;40424;-80
2023/04/17 10:37:22;;;;;;;4.10;3.33;;;;;;;14.44;57.73;99563.03;5073191;28;42033;-79
2023/04/17 10:39:55;;;;;;;3.40;3.10;;;;;;;14.48;58.02;99557.38;5070068;28;41007;-78
2023/04/17 10:42:24;;;;;;;3.67;3.37;;;;;;;14.52;58.39;99563.34;5071260;28;41478;-78
2023/04/17 10:45:00;;;;;;;4.63;3.20;;;;;;;14.52;59.09;99553.53;5078932;28;41742;-77
2023/04/17 10:47:32;;;;;;;3.63;3.33;;;;;;;14.52;59.51;99553.53;5090941;28;41716;-78
2023/04/17 10:50:02;;;;;;;3.73;3.43;;;;;;;14.38;58.92;99545.59;5073852;28;42300;-79
2023/04/17 10:52:42;;;;;;;3.40;3.07;;;;;;;14.48;59.44;99548.50;5074661;28;38603;-77
2023/04/17 10:55:13;;;;;;;3.23;2.93;;;;;;;14.49;59.52;99548.41;5087518;28;41822;-78
2023/04/17 10:57:55;;;;;;;3.30;3.00;;;;;;;14.42;58.88;99530.28;5091058;28;41653;-77
2023/04/17 11:00:32;;;;;;;4.43;2.80;;;;;;;14.52;59.07;99526.88;5070272;28;42448;-77
2023/04/17 11:03:01;;;;;;;3.77;2.60;;;;;;;14.71;59.05;99545.16;5070373;28;40029;-77
2023/04/17 11:05:30;;;;;;;3.23;2.67;;;;;;;14.58;58.34;99552.28;5073413;28;40992;-76
2023/04/17 11:07:57;;;;;;;2.57;2.37;;;;;;;14.45;58.51;99538.09;5090986;28;41332;-77
2023/04/17 11:10:25;;;;;;;2.60;2.40;;;;;;;14.50;58.91;99554.59;5090307;28;41083;-77
2023/04/17 11:12:55;;;;;;;3.00;2.40;;;;;;;14.43;58.64;99532.84;5092052;28;40145;-77
2023/04/17 11:15:29;;;;;;;5.87;5.37;;;;;;;14.49;58.87;99553.75;5089976;28;41820;-77
2023/04/17 11:17:58;;;;;;;6.47;5.97;;;;;;;14.49;58.74;99542.22;5073930;28;42880;-77
2023/04/17 11:20:28;;;;;;;2.20;2.10;;;;;;;14.29;58.28;99535.56;5073525;28;42344;-77
2023/04/17 11:22:56;;;;;;;1.83;1.73;;;;;;;14.34;58.48;99549.44;5090537;28;40368;-78
2023/04/17 11:25:25;;;;;;;2.13;1.97;;;;;;;14.35;58.42;99546.63;5111876;27;42769;-77
2023/04/17 11:27:57;;;;;;;1.90;1.80;;;;;;;14.35;58.76;99545.78;5070131;28;43201;-79
2023/04/17 11:30:31;;;;;;;2.27;1.80;;;;;;;14.24;58.94;99535.00;5086921;28;42175;-78
2023/04/17 11:33:00;;;;;;;2.03;1.93;;;;;;;14.25;58.97;99545.56;5068730;28;40944;-77
2023/04/17 11:35:30;;;;;;;3.23;2.83;;;;;;;14.13;59.18;99550.84;5084237;28;42979;-76
2023/04/17 11:38:10;;;;;;;3.20;2.03;;;;;;;14.09;60.29;99542.22;5090290;28;41763;-77
2023/04/17 11:40:42;;;;;;;2.10;2.00;;;;;;;14.13;59.89;99545.50;5073394;28;41225;-78
2023/04/17 11:43:11;;;;;;;2.30;2.10;;;;;;;14.14;59.93;99547.22;5090500;28;38609;-77
2023/04/17 11:45:41;;;;;;;2.13;2.00;;;;;;;14.24;60.32;99537.66;5110087;27;41886;-78
2023/04/17 11:48:11;;;;;;;2.43;2.10;;;;;;;14.35;59.88;99537.78;5085279;28;43764;-78